sensor_id;sensor_type;location;lat;lon;timestamp;P1;durP1;ratioP1;P2;durP2;ratioP2
22248;SDS011;67538;52.180;5.646;2023-08-06T00:01:55;16.80;;;12.13;;
22248;SDS011;67538;52.180;5.646;2023-08-06T00:04:22;19.73;;;13.10;;
22248;SDS011;67538;52.180;5.646;2023-08-06T00:06:49;17.77;;;12.30;;
22248;SDS011;67538;52.180;5.646;2023-08-06T00:09:16;19.73;;;13.23;;
22248;SDS011;67538;52.180;5.646;2023-08-06T00:11:43;19.43;;;14.07;;
22248;SDS011;67538;52.180;5.646;2023-08-06T00:14:11;21.10;;;14.70;;
22248;SDS011;67538;52.180;5.646;2023-08-06T00:16:42;20.50;;;14.73;;
22248;SDS011;67538;52.180;5.646;2023-08-06T00:19:09;22.27;;;15.88;;
22248;SDS011;67538;52.180;5.646;2023-08-06T00:21:37;20.95;;;15.30;;
22248;SDS011;67538;52.180;5.646;2023-08-06T00:24:04;23.20;;;16.02;;
22248;SDS011;67538;52.180;5.646;2023-08-06T00:26:31;25.30;;;17.27;;
22248;SDS011;67538;52.180;5.646;2023-08-06T00:28:58;28.00;;;17.35;;
22248;SDS011;67538;52.180;5.646;2023-08-06T00:31:25;25.17;;;17.10;;
22248;SDS011;67538;52.180;5.646;2023-08-06T00:33:53;24.37;;;16.80;;
22248;SDS011;67538;52.180;5.646;2023-08-06T00:36:20;25.05;;;17.90;;
22248;SDS011;67538;52.180;5.646;2023-08-06T00:38:47;28.60;;;19.17;;
22248;SDS011;67538;52.180;5.646;2023-08-06T00:41:14;27.52;;;18.00;;
22248;SDS011;67538;52.180;5.646;2023-08-06T00:43:41;26.38;;;17.25;;
22248;SDS011;67538;52.180;5.646;2023-08-06T00:46:08;25.05;;;17.23;;
22248;SDS011;67538;52.180;5.646;2023-08-06T00:48:36;25.98;;;16.42;;
22248;SDS011;67538;52.180;5.646;2023-08-06T00:51:04;25.92;;;17.33;;
22248;SDS011;67538;52.180;5.646;2023-08-06T00:53:32;28.40;;;17.25;;
22248;SDS011;67538;52.180;5.646;2023-08-06T00:55:59;23.20;;;16.20;;
22248;SDS011;67538;52.180;5.646;2023-08-06T00:58:26;24.57;;;16.97;;
22248;SDS011;67538;52.180;5.646;2023-08-06T01:00:54;21.42;;;16.35;;
22248;SDS011;67538;52.180;5.646;2023-08-06T01:03:21;23.00;;;16.77;;
22248;SDS011;67538;52.180;5.646;2023-08-06T01:05:48;23.90;;;16.83;;
22248;SDS011;67538;52.180;5.646;2023-08-06T01:08:19;24.48;;;16.85;;
22248;SDS011;67538;52.180;5.646;2023-08-06T01:11:03;24.98;;;16.67;;
22248;SDS011;67538;52.180;5.646;2023-08-06T01:13:39;27.50;;;17.52;;
22248;SDS011;67538;52.180;5.646;2023-08-06T01:16:08;27.48;;;17.58;;
22248;SDS011;67538;52.180;5.646;2023-08-06T01:18:36;26.52;;;17.83;;
22248;SDS011;67538;52.180;5.646;2023-08-06T01:21:05;25.10;;;17.98;;
22248;SDS011;67538;52.180;5.646;2023-08-06T01:23:32;23.55;;;17.83;;
22248;SDS011;67538;52.180;5.646;2023-08-06T01:26:05;25.92;;;18.52;;
22248;SDS011;67538;52.180;5.646;2023-08-06T01:28:40;26.75;;;18.33;;
22248;SDS011;67538;52.180;5.646;2023-08-06T01:31:12;25.73;;;18.05;;
22248;SDS011;67538;52.180;5.646;2023-08-06T01:33:50;28.07;;;18.40;;
22248;SDS011;67538;52.180;5.646;2023-08-06T01:36:20;28.73;;;18.67;;
22248;SDS011;67538;52.180;5.646;2023-08-06T01:38:48;25.60;;;18.58;;
22248;SDS011;67538;52.180;5.646;2023-08-06T01:41:17;26.35;;;18.63;;
22248;SDS011;67538;52.180;5.646;2023-08-06T01:43:44;28.55;;;18.10;;
22248;SDS011;67538;52.180;5.646;2023-08-06T01:46:11;25.10;;;17.57;;
22248;SDS011;67538;52.180;5.646;2023-08-06T01:48:38;26.40;;;18.02;;
22248;SDS011;67538;52.180;5.646;2023-08-06T01:51:05;20.65;;;16.25;;
22248;SDS011;67538;52.180;5.646;2023-08-06T01:53:34;23.95;;;17.10;;
22248;SDS011;67538;52.180;5.646;2023-08-06T01:56:01;28.13;;;17.13;;
22248;SDS011;67538;52.180;5.646;2023-08-06T01:58:28;22.80;;;16.15;;
22248;SDS011;67538;52.180;5.646;2023-08-06T02:00:55;22.42;;;15.73;;
22248;SDS011;67538;52.180;5.646;2023-08-06T02:03:22;23.73;;;16.35;;
22248;SDS011;67538;52.180;5.646;2023-08-06T02:05:49;23.45;;;16.42;;
22248;SDS011;67538;52.180;5.646;2023-08-06T02:08:16;23.52;;;17.02;;
22248;SDS011;67538;52.180;5.646;2023-08-06T02:10:45;24.83;;;17.60;;
22248;SDS011;67538;52.180;5.646;2023-08-06T02:13:12;27.17;;;18.35;;
22248;SDS011;67538;52.180;5.646;2023-08-06T02:15:41;25.70;;;18.30;;
22248;SDS011;67538;52.180;5.646;2023-08-06T02:18:09;28.03;;;19.17;;
22248;SDS011;67538;52.180;5.646;2023-08-06T02:20:36;29.17;;;20.88;;
22248;SDS011;67538;52.180;5.646;2023-08-06T02:23:03;27.80;;;19.13;;
22248;SDS011;67538;52.180;5.646;2023-08-06T02:25:30;29.55;;;20.30;;
22248;SDS011;67538;52.180;5.646;2023-08-06T02:27:59;29.08;;;20.83;;
22248;SDS011;67538;52.180;5.646;2023-08-06T02:30:26;32.20;;;21.30;;
22248;SDS011;67538;52.180;5.646;2023-08-06T02:32:53;33.33;;;21.27;;
22248;SDS011;67538;52.180;5.646;2023-08-06T02:35:20;30.08;;;21.42;;
22248;SDS011;67538;52.180;5.646;2023-08-06T02:37:47;33.85;;;21.80;;
22248;SDS011;67538;52.180;5.646;2023-08-06T02:40:14;29.45;;;20.70;;
22248;SDS011;67538;52.180;5.646;2023-08-06T02:42:41;30.73;;;21.17;;
22248;SDS011;67538;52.180;5.646;2023-08-06T02:45:10;33.58;;;21.27;;
22248;SDS011;67538;52.180;5.646;2023-08-06T02:47:37;34.72;;;21.75;;
22248;SDS011;67538;52.180;5.646;2023-08-06T02:50:04;36.08;;;22.58;;
22248;SDS011;67538;52.180;5.646;2023-08-06T02:52:32;35.17;;;22.75;;
22248;SDS011;67538;52.180;5.646;2023-08-06T02:54:59;35.15;;;22.75;;
22248;SDS011;67538;52.180;5.646;2023-08-06T02:57:26;36.40;;;22.10;;
22248;SDS011;67538;52.180;5.646;2023-08-06T02:59:53;36.13;;;24.42;;
22248;SDS011;67538;52.180;5.646;2023-08-06T03:02:21;37.38;;;24.98;;
22248;SDS011;67538;52.180;5.646;2023-08-06T03:04:48;37.97;;;25.60;;
22248;SDS011;67538;52.180;5.646;2023-08-06T03:07:16;37.17;;;25.13;;
22248;SDS011;67538;52.180;5.646;2023-08-06T03:09:43;41.88;;;25.95;;
22248;SDS011;67538;52.180;5.646;2023-08-06T03:12:10;41.13;;;26.50;;
22248;SDS011;67538;52.180;5.646;2023-08-06T03:14:37;42.65;;;26.85;;
22248;SDS011;67538;52.180;5.646;2023-08-06T03:17:04;43.92;;;27.08;;
22248;SDS011;67538;52.180;5.646;2023-08-06T03:19:33;43.30;;;27.45;;
22248;SDS011;67538;52.180;5.646;2023-08-06T03:22:00;44.30;;;27.50;;
22248;SDS011;67538;52.180;5.646;2023-08-06T03:24:27;47.15;;;28.67;;
22248;SDS011;67538;52.180;5.646;2023-08-06T03:26:54;42.55;;;27.05;;
22248;SDS011;67538;52.180;5.646;2023-08-06T03:29:21;40.42;;;27.13;;
22248;SDS011;67538;52.180;5.646;2023-08-06T03:31:48;39.35;;;25.40;;
22248;SDS011;67538;52.180;5.646;2023-08-06T03:34:15;43.13;;;26.55;;
22248;SDS011;67538;52.180;5.646;2023-08-06T03:36:43;43.63;;;26.63;;
22248;SDS011;67538;52.180;5.646;2023-08-06T03:39:10;40.17;;;25.35;;
22248;SDS011;67538;52.180;5.646;2023-08-06T03:41:39;39.20;;;25.30;;
22248;SDS011;67538;52.180;5.646;2023-08-06T03:44:06;43.03;;;25.60;;
22248;SDS011;67538;52.180;5.646;2023-08-06T03:46:33;40.03;;;25.13;;
22248;SDS011;67538;52.180;5.646;2023-08-06T03:49:00;41.67;;;25.92;;
22248;SDS011;67538;52.180;5.646;2023-08-06T03:51:27;37.83;;;24.70;;
22248;SDS011;67538;52.180;5.646;2023-08-06T03:53:55;39.30;;;24.60;;
22248;SDS011;67538;52.180;5.646;2023-08-06T03:56:22;39.22;;;25.35;;
22248;SDS011;67538;52.180;5.646;2023-08-06T03:58:49;39.75;;;25.05;;
22248;SDS011;67538;52.180;5.646;2023-08-06T04:01:16;39.80;;;25.38;;
22248;SDS011;67538;52.180;5.646;2023-08-06T04:03:43;39.55;;;25.33;;
22248;SDS011;67538;52.180;5.646;2023-08-06T04:06:11;37.78;;;24.80;;
22248;SDS011;67538;52.180;5.646;2023-08-06T04:08:38;37.57;;;24.83;;
22248;SDS011;67538;52.180;5.646;2023-08-06T04:11:06;38.33;;;24.20;;
22248;SDS011;67538;52.180;5.646;2023-08-06T04:13:33;39.75;;;24.92;;
22248;SDS011;67538;52.180;5.646;2023-08-06T04:16:00;37.85;;;25.00;;
22248;SDS011;67538;52.180;5.646;2023-08-06T04:18:28;38.50;;;24.85;;
22248;SDS011;67538;52.180;5.646;2023-08-06T04:20:55;40.95;;;24.88;;
22248;SDS011;67538;52.180;5.646;2023-08-06T04:23:22;41.07;;;24.67;;
22248;SDS011;67538;52.180;5.646;2023-08-06T04:25:49;42.63;;;25.90;;
22248;SDS011;67538;52.180;5.646;2023-08-06T04:28:19;41.33;;;25.77;;
22248;SDS011;67538;52.180;5.646;2023-08-06T04:30:46;41.03;;;25.38;;
22248;SDS011;67538;52.180;5.646;2023-08-06T04:33:13;42.15;;;26.25;;
22248;SDS011;67538;52.180;5.646;2023-08-06T04:35:40;44.30;;;26.23;;
22248;SDS011;67538;52.180;5.646;2023-08-06T04:38:07;43.67;;;26.95;;
22248;SDS011;67538;52.180;5.646;2023-08-06T04:40:34;45.38;;;26.98;;
22248;SDS011;67538;52.180;5.646;2023-08-06T04:43:01;43.78;;;27.38;;
22248;SDS011;67538;52.180;5.646;2023-08-06T04:45:30;42.00;;;25.83;;
22248;SDS011;67538;52.180;5.646;2023-08-06T04:47:57;42.88;;;26.58;;
22248;SDS011;67538;52.180;5.646;2023-08-06T04:50:24;45.67;;;28.10;;
22248;SDS011;67538;52.180;5.646;2023-08-06T04:52:51;43.40;;;26.98;;
22248;SDS011;67538;52.180;5.646;2023-08-06T04:55:19;45.50;;;28.15;;
22248;SDS011;67538;52.180;5.646;2023-08-06T04:57:46;44.97;;;27.90;;
22248;SDS011;67538;52.180;5.646;2023-08-06T05:00:13;46.40;;;28.27;;
22248;SDS011;67538;52.180;5.646;2023-08-06T05:02:42;46.25;;;28.00;;
22248;SDS011;67538;52.180;5.646;2023-08-06T05:05:09;46.13;;;27.83;;
22248;SDS011;67538;52.180;5.646;2023-08-06T05:07:35;46.90;;;27.83;;
22248;SDS011;67538;52.180;5.646;2023-08-06T05:10:03;44.13;;;28.33;;
22248;SDS011;67538;52.180;5.646;2023-08-06T05:12:30;47.47;;;28.23;;
22248;SDS011;67538;52.180;5.646;2023-08-06T05:14:57;48.17;;;28.45;;
22248;SDS011;67538;52.180;5.646;2023-08-06T05:17:24;44.05;;;27.20;;
22248;SDS011;67538;52.180;5.646;2023-08-06T05:19:53;46.37;;;27.97;;
22248;SDS011;67538;52.180;5.646;2023-08-06T05:22:20;42.35;;;26.50;;
22248;SDS011;67538;52.180;5.646;2023-08-06T05:24:47;41.83;;;26.90;;
22248;SDS011;67538;52.180;5.646;2023-08-06T05:27:14;38.67;;;25.75;;
22248;SDS011;67538;52.180;5.646;2023-08-06T05:29:43;40.33;;;25.30;;
22248;SDS011;67538;52.180;5.646;2023-08-06T05:32:10;42.38;;;25.63;;
22248;SDS011;67538;52.180;5.646;2023-08-06T05:34:37;40.80;;;25.80;;
22248;SDS011;67538;52.180;5.646;2023-08-06T05:37:07;40.50;;;25.73;;
22248;SDS011;67538;52.180;5.646;2023-08-06T05:39:34;45.17;;;25.90;;
22248;SDS011;67538;52.180;5.646;2023-08-06T05:42:02;39.08;;;25.05;;
22248;SDS011;67538;52.180;5.646;2023-08-06T05:44:29;41.15;;;25.25;;
22248;SDS011;67538;52.180;5.646;2023-08-06T05:46:56;37.33;;;25.02;;
22248;SDS011;67538;52.180;5.646;2023-08-06T05:49:23;42.50;;;24.55;;
22248;SDS011;67538;52.180;5.646;2023-08-06T05:51:50;37.72;;;24.05;;
22248;SDS011;67538;52.180;5.646;2023-08-06T05:54:19;40.13;;;23.65;;
22248;SDS011;67538;52.180;5.646;2023-08-06T05:56:46;35.75;;;23.10;;
22248;SDS011;67538;52.180;5.646;2023-08-06T05:59:14;36.07;;;22.80;;
22248;SDS011;67538;52.180;5.646;2023-08-06T06:01:41;37.07;;;22.60;;
22248;SDS011;67538;52.180;5.646;2023-08-06T06:04:08;32.58;;;21.67;;
22248;SDS011;67538;52.180;5.646;2023-08-06T06:06:35;33.70;;;21.83;;
22248;SDS011;67538;52.180;5.646;2023-08-06T06:09:02;32.30;;;21.08;;
22248;SDS011;67538;52.180;5.646;2023-08-06T06:11:30;31.45;;;20.52;;
22248;SDS011;67538;52.180;5.646;2023-08-06T06:13:57;32.42;;;22.05;;
22248;SDS011;67538;52.180;5.646;2023-08-06T06:16:24;31.87;;;21.00;;
22248;SDS011;67538;52.180;5.646;2023-08-06T06:18:51;34.47;;;21.10;;
22248;SDS011;67538;52.180;5.646;2023-08-06T06:21:19;32.40;;;20.73;;
22248;SDS011;67538;52.180;5.646;2023-08-06T06:23:46;31.55;;;19.83;;
22248;SDS011;67538;52.180;5.646;2023-08-06T06:26:13;30.55;;;19.70;;
22248;SDS011;67538;52.180;5.646;2023-08-06T06:28:42;29.35;;;18.75;;
22248;SDS011;67538;52.180;5.646;2023-08-06T06:31:09;29.17;;;18.50;;
22248;SDS011;67538;52.180;5.646;2023-08-06T06:33:36;26.43;;;17.93;;
22248;SDS011;67538;52.180;5.646;2023-08-06T06:36:03;23.90;;;16.23;;
22248;SDS011;67538;52.180;5.646;2023-08-06T06:38:32;19.52;;;14.52;;
22248;SDS011;67538;52.180;5.646;2023-08-06T06:40:59;21.90;;;14.77;;
22248;SDS011;67538;52.180;5.646;2023-08-06T06:43:28;20.80;;;14.85;;
22248;SDS011;67538;52.180;5.646;2023-08-06T06:45:57;22.45;;;14.90;;
22248;SDS011;67538;52.180;5.646;2023-08-06T06:48:25;22.05;;;15.70;;
22248;SDS011;67538;52.180;5.646;2023-08-06T06:50:52;22.80;;;15.43;;
22248;SDS011;67538;52.180;5.646;2023-08-06T06:53:19;21.67;;;14.63;;
22248;SDS011;67538;52.180;5.646;2023-08-06T06:55:48;23.65;;;15.75;;
22248;SDS011;67538;52.180;5.646;2023-08-06T06:58:15;22.45;;;15.45;;
22248;SDS011;67538;52.180;5.646;2023-08-06T07:00:42;22.65;;;15.70;;
22248;SDS011;67538;52.180;5.646;2023-08-06T07:03:10;20.98;;;15.18;;
22248;SDS011;67538;52.180;5.646;2023-08-06T07:05:37;21.43;;;15.03;;
22248;SDS011;67538;52.180;5.646;2023-08-06T07:08:04;22.20;;;15.43;;
22248;SDS011;67538;52.180;5.646;2023-08-06T07:10:31;19.65;;;14.25;;
22248;SDS011;67538;52.180;5.646;2023-08-06T07:12:58;20.17;;;13.95;;
22248;SDS011;67538;52.180;5.646;2023-08-06T07:15:26;21.90;;;14.65;;
22248;SDS011;67538;52.180;5.646;2023-08-06T07:17:53;21.63;;;14.77;;
22248;SDS011;67538;52.180;5.646;2023-08-06T07:20:21;21.40;;;14.77;;
22248;SDS011;67538;52.180;5.646;2023-08-06T07:22:48;23.95;;;15.93;;
22248;SDS011;67538;52.180;5.646;2023-08-06T07:25:16;26.42;;;17.33;;
22248;SDS011;67538;52.180;5.646;2023-08-06T07:27:44;29.60;;;16.93;;
22248;SDS011;67538;52.180;5.646;2023-08-06T07:30:11;23.60;;;16.33;;
22248;SDS011;67538;52.180;5.646;2023-08-06T07:32:38;24.13;;;16.40;;
22248;SDS011;67538;52.180;5.646;2023-08-06T07:35:05;23.38;;;15.90;;
22248;SDS011;67538;52.180;5.646;2023-08-06T07:37:36;21.60;;;15.25;;
22248;SDS011;67538;52.180;5.646;2023-08-06T07:40:03;23.63;;;15.20;;
22248;SDS011;67538;52.180;5.646;2023-08-06T07:42:30;26.23;;;16.10;;
22248;SDS011;67538;52.180;5.646;2023-08-06T07:44:58;21.58;;;14.52;;
22248;SDS011;67538;52.180;5.646;2023-08-06T07:47:25;20.75;;;14.52;;
22248;SDS011;67538;52.180;5.646;2023-08-06T07:49:52;25.60;;;16.25;;
22248;SDS011;67538;52.180;5.646;2023-08-06T07:52:19;22.38;;;15.50;;
22248;SDS011;67538;52.180;5.646;2023-08-06T07:54:47;24.08;;;16.90;;
22248;SDS011;67538;52.180;5.646;2023-08-06T07:57:15;23.98;;;16.33;;
22248;SDS011;67538;52.180;5.646;2023-08-06T07:59:42;19.73;;;14.40;;
22248;SDS011;67538;52.180;5.646;2023-08-06T08:02:09;20.83;;;15.37;;
22248;SDS011;67538;52.180;5.646;2023-08-06T08:04:36;20.13;;;15.05;;
22248;SDS011;67538;52.180;5.646;2023-08-06T08:07:03;20.08;;;14.43;;
22248;SDS011;67538;52.180;5.646;2023-08-06T08:09:30;20.05;;;14.85;;
22248;SDS011;67538;52.180;5.646;2023-08-06T08:11:59;21.08;;;15.20;;
22248;SDS011;67538;52.180;5.646;2023-08-06T08:14:27;20.20;;;14.47;;
22248;SDS011;67538;52.180;5.646;2023-08-06T08:17:00;23.02;;;17.50;;
22248;SDS011;67538;52.180;5.646;2023-08-06T08:19:27;25.67;;;17.90;;
22248;SDS011;67538;52.180;5.646;2023-08-06T08:21:54;26.40;;;19.45;;
22248;SDS011;67538;52.180;5.646;2023-08-06T08:24:21;27.50;;;20.23;;
22248;SDS011;67538;52.180;5.646;2023-08-06T08:26:50;29.42;;;20.83;;
22248;SDS011;67538;52.180;5.646;2023-08-06T08:29:19;28.98;;;21.73;;
22248;SDS011;67538;52.180;5.646;2023-08-06T08:31:46;28.23;;;20.87;;
22248;SDS011;67538;52.180;5.646;2023-08-06T08:34:15;28.30;;;20.80;;
22248;SDS011;67538;52.180;5.646;2023-08-06T08:36:42;28.25;;;21.45;;
22248;SDS011;67538;52.180;5.646;2023-08-06T08:39:12;30.67;;;23.30;;
22248;SDS011;67538;52.180;5.646;2023-08-06T08:41:39;31.30;;;23.25;;
22248;SDS011;67538;52.180;5.646;2023-08-06T08:44:08;28.08;;;21.17;;
22248;SDS011;67538;52.180;5.646;2023-08-06T08:46:38;28.67;;;21.15;;
22248;SDS011;67538;52.180;5.646;2023-08-06T08:49:07;26.70;;;20.85;;
22248;SDS011;67538;52.180;5.646;2023-08-06T08:51:34;28.20;;;21.98;;
22248;SDS011;67538;52.180;5.646;2023-08-06T08:54:02;31.27;;;21.95;;
22248;SDS011;67538;52.180;5.646;2023-08-06T08:56:30;30.50;;;22.73;;
22248;SDS011;67538;52.180;5.646;2023-08-06T08:58:58;32.25;;;22.55;;
22248;SDS011;67538;52.180;5.646;2023-08-06T09:01:25;36.22;;;23.73;;
22248;SDS011;67538;52.180;5.646;2023-08-06T09:03:55;32.90;;;24.10;;
22248;SDS011;67538;52.180;5.646;2023-08-06T09:06:24;34.70;;;25.23;;
22248;SDS011;67538;52.180;5.646;2023-08-06T09:08:54;34.47;;;25.60;;
22248;SDS011;67538;52.180;5.646;2023-08-06T09:11:27;35.17;;;26.95;;
22248;SDS011;67538;52.180;5.646;2023-08-06T09:14:03;35.60;;;25.80;;
22248;SDS011;67538;52.180;5.646;2023-08-06T09:16:32;36.85;;;26.42;;
22248;SDS011;67538;52.180;5.646;2023-08-06T09:19:07;34.77;;;26.33;;
22248;SDS011;67538;52.180;5.646;2023-08-06T09:21:36;36.20;;;26.63;;
22248;SDS011;67538;52.180;5.646;2023-08-06T09:24:07;40.05;;;27.92;;
22248;SDS011;67538;52.180;5.646;2023-08-06T09:26:36;38.10;;;26.88;;
22248;SDS011;67538;52.180;5.646;2023-08-06T09:29:04;38.03;;;27.80;;
22248;SDS011;67538;52.180;5.646;2023-08-06T09:31:33;33.38;;;25.85;;
22248;SDS011;67538;52.180;5.646;2023-08-06T09:34:09;36.72;;;27.30;;
22248;SDS011;67538;52.180;5.646;2023-08-06T09:36:39;36.60;;;27.42;;
22248;SDS011;67538;52.180;5.646;2023-08-06T09:39:12;36.25;;;27.15;;
22248;SDS011;67538;52.180;5.646;2023-08-06T09:41:40;38.47;;;28.10;;
22248;SDS011;67538;52.180;5.646;2023-08-06T09:44:13;39.58;;;29.42;;
22248;SDS011;67538;52.180;5.646;2023-08-06T09:46:43;38.33;;;28.83;;
22248;SDS011;67538;52.180;5.646;2023-08-06T09:49:14;36.77;;;28.60;;
22248;SDS011;67538;52.180;5.646;2023-08-06T09:51:41;39.22;;;29.25;;
22248;SDS011;67538;52.180;5.646;2023-08-06T09:54:09;38.60;;;28.48;;
22248;SDS011;67538;52.180;5.646;2023-08-06T09:56:38;37.97;;;29.35;;
22248;SDS011;67538;52.180;5.646;2023-08-06T09:59:06;36.70;;;28.90;;
22248;SDS011;67538;52.180;5.646;2023-08-06T10:01:33;33.95;;;27.08;;
22248;SDS011;67538;52.180;5.646;2023-08-06T10:04:01;13.50;;;10.43;;
22248;SDS011;67538;52.180;5.646;2023-08-06T10:06:31;9.07;;;7.55;;
22248;SDS011;67538;52.180;5.646;2023-08-06T10:09:00;6.72;;;4.65;;
22248;SDS011;67538;52.180;5.646;2023-08-06T10:11:28;6.00;;;4.38;;
22248;SDS011;67538;52.180;5.646;2023-08-06T10:13:58;4.47;;;2.90;;
22248;SDS011;67538;52.180;5.646;2023-08-06T10:16:30;3.67;;;2.92;;
22248;SDS011;67538;52.180;5.646;2023-08-06T10:18:58;5.32;;;2.33;;
22248;SDS011;67538;52.180;5.646;2023-08-06T10:21:27;4.82;;;2.67;;
22248;SDS011;67538;52.180;5.646;2023-08-06T10:23:57;6.45;;;2.50;;
22248;SDS011;67538;52.180;5.646;2023-08-06T10:26:27;4.87;;;2.80;;
22248;SDS011;67538;52.180;5.646;2023-08-06T10:28:55;5.90;;;2.83;;
22248;SDS011;67538;52.180;5.646;2023-08-06T10:34:32;3.20;;;2.20;;
22248;SDS011;67538;52.180;5.646;2023-08-06T10:37:34;4.30;;;2.22;;
22248;SDS011;67538;52.180;5.646;2023-08-06T10:40:05;3.38;;;2.30;;
22248;SDS011;67538;52.180;5.646;2023-08-06T10:42:33;7.85;;;2.90;;
22248;SDS011;67538;52.180;5.646;2023-08-06T10:45:16;11.52;;;3.20;;
22248;SDS011;67538;52.180;5.646;2023-08-06T10:47:44;4.75;;;2.55;;
22248;SDS011;67538;52.180;5.646;2023-08-06T10:50:12;8.07;;;2.72;;
22248;SDS011;67538;52.180;5.646;2023-08-06T10:52:41;3.97;;;2.92;;
22248;SDS011;67538;52.180;5.646;2023-08-06T10:55:10;6.47;;;3.40;;
22248;SDS011;67538;52.180;5.646;2023-08-06T10:57:37;7.72;;;3.10;;
22248;SDS011;67538;52.180;5.646;2023-08-06T11:00:05;6.55;;;2.90;;
22248;SDS011;67538;52.180;5.646;2023-08-06T11:02:33;7.13;;;2.70;;
22248;SDS011;67538;52.180;5.646;2023-08-06T11:05:04;4.38;;;2.90;;
22248;SDS011;67538;52.180;5.646;2023-08-06T11:07:32;4.07;;;3.13;;
22248;SDS011;67538;52.180;5.646;2023-08-06T11:10:03;4.75;;;3.35;;
22248;SDS011;67538;52.180;5.646;2023-08-06T11:12:32;7.68;;;4.00;;
22248;SDS011;67538;52.180;5.646;2023-08-06T11:15:00;5.68;;;4.25;;
22248;SDS011;67538;52.180;5.646;2023-08-06T11:17:28;7.30;;;4.43;;
22248;SDS011;67538;52.180;5.646;2023-08-06T11:19:56;7.93;;;4.72;;
22248;SDS011;67538;52.180;5.646;2023-08-06T11:22:26;9.43;;;5.15;;
22248;SDS011;67538;52.180;5.646;2023-08-06T11:24:53;8.87;;;5.40;;
22248;SDS011;67538;52.180;5.646;2023-08-06T11:27:21;13.15;;;5.50;;
22248;SDS011;67538;52.180;5.646;2023-08-06T11:29:49;10.43;;;5.93;;
22248;SDS011;67538;52.180;5.646;2023-08-06T11:32:16;17.92;;;6.28;;
22248;SDS011;67538;52.180;5.646;2023-08-06T11:34:43;9.95;;;5.43;;
22248;SDS011;67538;52.180;5.646;2023-08-06T11:37:10;11.07;;;5.90;;
22248;SDS011;67538;52.180;5.646;2023-08-06T11:39:38;10.73;;;5.93;;
22248;SDS011;67538;52.180;5.646;2023-08-06T11:42:11;8.00;;;5.10;;
22248;SDS011;67538;52.180;5.646;2023-08-06T11:44:38;11.55;;;5.50;;
22248;SDS011;67538;52.180;5.646;2023-08-06T11:47:12;10.93;;;5.70;;
22248;SDS011;67538;52.180;5.646;2023-08-06T11:49:40;10.07;;;5.30;;
22248;SDS011;67538;52.180;5.646;2023-08-06T11:52:11;9.00;;;5.95;;
22248;SDS011;67538;52.180;5.646;2023-08-06T11:54:41;14.38;;;6.53;;
22248;SDS011;67538;52.180;5.646;2023-08-06T11:57:08;13.30;;;6.70;;
22248;SDS011;67538;52.180;5.646;2023-08-06T11:59:37;12.30;;;6.83;;
22248;SDS011;67538;52.180;5.646;2023-08-06T12:02:04;13.20;;;6.97;;
22248;SDS011;67538;52.180;5.646;2023-08-06T12:07:29;15.10;;;6.78;;
22248;SDS011;67538;52.180;5.646;2023-08-06T12:09:57;13.35;;;6.75;;
22248;SDS011;67538;52.180;5.646;2023-08-06T12:12:24;9.70;;;6.00;;
22248;SDS011;67538;52.180;5.646;2023-08-06T12:14:51;10.07;;;5.88;;
22248;SDS011;67538;52.180;5.646;2023-08-06T12:17:18;11.77;;;6.47;;
22248;SDS011;67538;52.180;5.646;2023-08-06T12:19:45;10.23;;;6.35;;
22248;SDS011;67538;52.180;5.646;2023-08-06T12:22:15;11.32;;;6.68;;
22248;SDS011;67538;52.180;5.646;2023-08-06T12:24:42;10.33;;;6.10;;
22248;SDS011;67538;52.180;5.646;2023-08-06T12:27:10;14.68;;;7.10;;
22248;SDS011;67538;52.180;5.646;2023-08-06T12:29:37;11.93;;;7.00;;
22248;SDS011;67538;52.180;5.646;2023-08-06T12:32:07;10.80;;;6.70;;
22248;SDS011;67538;52.180;5.646;2023-08-06T12:34:35;13.57;;;6.43;;
22248;SDS011;67538;52.180;5.646;2023-08-06T12:37:02;12.27;;;7.35;;
22248;SDS011;67538;52.180;5.646;2023-08-06T12:39:30;12.52;;;7.28;;
22248;SDS011;67538;52.180;5.646;2023-08-06T12:41:57;13.88;;;7.20;;
22248;SDS011;67538;52.180;5.646;2023-08-06T12:44:25;10.70;;;7.13;;
22248;SDS011;67538;52.180;5.646;2023-08-06T12:46:52;13.00;;;7.45;;
22248;SDS011;67538;52.180;5.646;2023-08-06T12:49:19;13.68;;;7.50;;
22248;SDS011;67538;52.180;5.646;2023-08-06T12:51:47;11.50;;;7.70;;
22248;SDS011;67538;52.180;5.646;2023-08-06T12:54:15;11.63;;;7.45;;
22248;SDS011;67538;52.180;5.646;2023-08-06T12:56:44;14.55;;;8.10;;
22248;SDS011;67538;52.180;5.646;2023-08-06T12:59:13;15.93;;;8.98;;
22248;SDS011;67538;52.180;5.646;2023-08-06T13:01:41;15.38;;;8.50;;
22248;SDS011;67538;52.180;5.646;2023-08-06T13:04:08;13.48;;;8.20;;
22248;SDS011;67538;52.180;5.646;2023-08-06T13:06:36;15.57;;;8.77;;
22248;SDS011;67538;52.180;5.646;2023-08-06T13:09:04;12.95;;;7.82;;
22248;SDS011;67538;52.180;5.646;2023-08-06T13:11:32;13.48;;;7.85;;
22248;SDS011;67538;52.180;5.646;2023-08-06T13:14:03;11.60;;;7.35;;
22248;SDS011;67538;52.180;5.646;2023-08-06T13:16:32;9.15;;;6.28;;
22248;SDS011;67538;52.180;5.646;2023-08-06T13:18:59;10.15;;;6.20;;
22248;SDS011;67538;52.180;5.646;2023-08-06T13:21:35;11.18;;;5.78;;
22248;SDS011;67538;52.180;5.646;2023-08-06T13:24:25;7.63;;;5.10;;
22248;SDS011;67538;52.180;5.646;2023-08-06T13:26:52;7.82;;;4.85;;
22248;SDS011;67538;52.180;5.646;2023-08-06T13:29:21;9.25;;;5.00;;
22248;SDS011;67538;52.180;5.646;2023-08-06T13:31:48;10.15;;;5.30;;
22248;SDS011;67538;52.180;5.646;2023-08-06T13:34:15;8.95;;;5.47;;
22248;SDS011;67538;52.180;5.646;2023-08-06T13:36:42;11.88;;;6.10;;
22248;SDS011;67538;52.180;5.646;2023-08-06T13:39:10;9.55;;;5.50;;
22248;SDS011;67538;52.180;5.646;2023-08-06T13:41:37;7.45;;;4.70;;
22248;SDS011;67538;52.180;5.646;2023-08-06T13:44:05;8.93;;;4.93;;
22248;SDS011;67538;52.180;5.646;2023-08-06T13:46:34;9.75;;;5.15;;
22248;SDS011;67538;52.180;5.646;2023-08-06T13:49:01;8.02;;;5.43;;
22248;SDS011;67538;52.180;5.646;2023-08-06T13:51:28;10.63;;;5.85;;
22248;SDS011;67538;52.180;5.646;2023-08-06T13:53:55;8.73;;;5.70;;
22248;SDS011;67538;52.180;5.646;2023-08-06T13:56:22;12.43;;;5.72;;
22248;SDS011;67538;52.180;5.646;2023-08-06T13:58:49;11.70;;;6.40;;
22248;SDS011;67538;52.180;5.646;2023-08-06T14:01:17;11.70;;;6.70;;
22248;SDS011;67538;52.180;5.646;2023-08-06T14:03:46;12.07;;;6.80;;
22248;SDS011;67538;52.180;5.646;2023-08-06T14:06:13;14.02;;;8.30;;
22248;SDS011;67538;52.180;5.646;2023-08-06T14:08:40;16.23;;;8.70;;
22248;SDS011;67538;52.180;5.646;2023-08-06T14:11:07;12.88;;;8.38;;
22248;SDS011;67538;52.180;5.646;2023-08-06T14:13:35;13.10;;;8.33;;
22248;SDS011;67538;52.180;5.646;2023-08-06T14:16:02;18.17;;;8.37;;
22248;SDS011;67538;52.180;5.646;2023-08-06T14:18:30;13.68;;;8.20;;
22248;SDS011;67538;52.180;5.646;2023-08-06T14:20:58;11.52;;;8.10;;
22248;SDS011;67538;52.180;5.646;2023-08-06T14:23:25;14.32;;;8.65;;
22248;SDS011;67538;52.180;5.646;2023-08-06T14:25:52;13.88;;;8.50;;
22248;SDS011;67538;52.180;5.646;2023-08-06T14:28:19;13.70;;;9.25;;
22248;SDS011;67538;52.180;5.646;2023-08-06T14:30:46;14.52;;;8.88;;
22248;SDS011;67538;52.180;5.646;2023-08-06T14:33:13;15.15;;;9.00;;
22248;SDS011;67538;52.180;5.646;2023-08-06T14:35:40;16.33;;;9.20;;
22248;SDS011;67538;52.180;5.646;2023-08-06T14:38:08;15.93;;;9.60;;